Time;durP1;ratioP1;P1;durP2;ratioP2;P2;SDS_P1;SDS_P2;PMS_P1;PMS_P2;Temp;Humidity;BMP_temperature;BMP_pressure;BME280_temperature;BME280_humidity;BME280_pressure;Samples;Min_cycle;Max_cycle;Signal;HPM_P1;HPM_P2
2023/05/21 00:01:01;;;;;;;;;;;;;;;;;;5033901;28;19921;-77
2023/05/21 00:03:29;;;;;;;;;;;;;;;;;;5034103;28;19909;-76
2023/05/21 00:05:54;;;;;;;;;;;;;;;;;;5033839;28;19923;-77
2023/05/21 00:08:19;;;;;;;;;;;;;;;;;;5033309;28;20299;-76
2023/05/21 00:10:44;;;;;;;;;;;;;;;;;;5034484;28;20424;-77
2023/05/21 00:13:10;;;;;;;;;;;;;;;;;;5034308;28;20304;-77
2023/05/21 00:15:35;;;;;;;;;;;;;;;;;;5033901;28;19913;-77
2023/05/21 00:18:00;;;;;;;;;;;;;;;;;;5029906;28;19914;-77
2023/05/21 00:20:28;;;;;;;;;;;;;;;;;;5032688;28;19962;-77
2023/05/21 00:22:53;;;;;;;;;;;;;;;;;;5034405;28;20371;-77
2023/05/21 00:25:18;;;;;;;;;;;;;;;;;;5041786;28;19913;-77
2023/05/21 00:27:44;;;;;;;;;;;;;;;;;;5041261;28;19915;-77
2023/05/21 00:30:09;;;;;;;;;;;;;;;;;;5037620;28;19913;-77
2023/05/21 00:32:35;;;;;;;;;;;;;;;;;;5039709;28;19916;-77
2023/05/21 00:35:01;;;;;;;;;;;;;;;;;;5038498;28;19919;-77
2023/05/21 00:37:33;;;;;;;;;;;;;;;;;;5046095;28;19928;-77
2023/05/21 00:39:58;;;;;;;;;;;;;;;;;;5038985;28;19913;-77
2023/05/21 00:42:26;;;;;;;;;;;;;;;;;;5021184;28;20452;-77
2023/05/21 00:44:53;;;;;;;;;;;;;;;;;;5046494;28;20020;-77
2023/05/21 00:47:20;;;;;;;;;;;;;;;;;;5038035;28;20023;-77
2023/05/21 00:49:47;;;;;;;;;;;;;;;;;;5038544;28;19912;-76
2023/05/21 00:52:12;;;;;;;;;;;;;;;;;;5041109;28;19909;-77
2023/05/21 00:54:37;;;;;;;;;;;;;;;;;;5047961;28;19932;-78
2023/05/21 00:57:02;;;;;;;;;;;;;;;;;;5039179;28;19909;-78
2023/05/21 00:59:28;;;;;;;;;;;;;;;;;;5042280;28;20283;-76
2023/05/21 01:01:55;;;;;;;;;;;;;;;;;;5039403;28;19924;-77
2023/05/21 01:04:20;;;;;;;;;;;;;;;;;;5036217;28;20039;-76
2023/05/21 01:06:45;;;;;;;;;;;;;;;;;;5037816;28;20453;-76
2023/05/21 01:09:11;;;;;;;;;;;;;;;;;;5037159;28;20007;-77
2023/05/21 01:11:36;;;;;;;;;;;;;;;;;;5041532;28;20271;-77
2023/05/21 01:14:01;;;;;;;;;;;;;;;;;;5045970;28;19913;-76
2023/05/21 01:16:27;;;;;;;;;;;;;;;;;;5046796;28;19904;-77
2023/05/21 01:18:52;;;;;;;;;;;;;;;;;;5048347;28;19913;-76
2023/05/21 01:21:17;;;;;;;;;;;;;;;;;;5047785;28;20261;-76
2023/05/21 01:23:43;;;;;;;;;;;;;;;;;;5054423;28;19919;-76
2023/05/21 01:26:11;;;;;;;;;;;;;;;;;;5048002;28;19909;-76
2023/05/21 01:28:37;;;;;;;;;;;;;;;;;;5039989;28;19959;-77
2023/05/21 01:31:02;;;;;;;;;;;;;;;;;;5043080;28;19909;-77
2023/05/21 01:33:27;;;;;;;;;;;;;;;;;;5039911;28;19963;-76
2023/05/21 01:35:53;;;;;;;;;;;;;;;;;;5045820;28;20335;-76
2023/05/21 01:38:18;;;;;;;;;;;;;;;;;;5041285;28;19920;-77
2023/05/21 01:40:43;;;;;;;;;;;;;;;;;;5039845;28;19913;-76
2023/05/21 01:43:09;;;;;;;;;;;;;;;;;;5049848;28;19936;-76
2023/05/21 01:45:34;;;;;;;;;;;;;;;;;;5039817;28;20004;-76
2023/05/21 01:47:59;;;;;;;;;;;;;;;;;;5038331;28;19987;-76
2023/05/21 01:50:25;;;;;;;;;;;;;;;;;;5038631;28;19913;-76
2023/05/21 01:52:50;;;;;;;;;;;;;;;;;;5036043;28;19917;-76
2023/05/21 01:55:15;;;;;;;;;;;;;;;;;;5045462;28;20314;-76
2023/05/21 01:57:41;;;;;;;;;;;;;;;;;;5053810;28;19913;-76
2023/05/21 02:00:07;;;;;;;;;;;;;;;;;;5047101;28;19948;-76
2023/05/21 02:02:40;;;;;;;;;;;;;;;;;;5036856;28;20007;-77
2023/05/21 02:05:06;;;;;;;;;;;;;;;;;;5037828;28;20007;-77
2023/05/21 02:07:32;;;;;;;;;;;;;;;;;;5040287;28;20370;-76
2023/05/21 02:09:58;;;;;;;;;;;;;;;;;;5038701;28;19913;-76
2023/05/21 02:12:24;;;;;;;;;;;;;;;;;;5036103;28;19916;-77
2023/05/21 02:14:50;;;;;;;;;;;;;;;;;;5036778;28;19913;-76
2023/05/21 02:17:16;;;;;;;;;;;;;;;;;;5023849;28;19955;-76
2023/05/21 02:19:43;;;;;;;;;;;;;;;;;;5039015;28;19923;-76
2023/05/21 02:22:09;;;;;;;;;;;;;;;;;;5040338;28;19963;-76
2023/05/21 02:24:34;;;;;;;;;;;;;;;;;;5042099;28;19913;-76
2023/05/21 02:26:59;;;;;;;;;;;;;;;;;;5046022;28;19962;-76
2023/05/21 02:29:25;;;;;;;;;;;;;;;;;;5038667;28;19959;-77
2023/05/21 02:31:50;;;;;;;;;;;;;;;;;;5037570;28;20011;-76
2023/05/21 02:34:16;;;;;;;;;;;;;;;;;;5038440;28;19920;-76
2023/05/21 02:36:41;;;;;;;;;;;;;;;;;;5040478;28;20040;-77
2023/05/21 02:39:07;;;;;;;;;;;;;;;;;;5038294;28;20388;-77
2023/05/21 02:41:32;;;;;;;;;;;;;;;;;;5042104;28;19999;-77
2023/05/21 02:43:57;;;;;;;;;;;;;;;;;;5044498;28;19919;-77
2023/05/21 02:46:23;;;;;;;;;;;;;;;;;;5040055;28;19932;-77
2023/05/21 02:48:48;;;;;;;;;;;;;;;;;;5050601;28;19913;-77
2023/05/21 02:51:13;;;;;;;;;;;;;;;;;;5052720;28;19916;-77
2023/05/21 02:53:39;;;;;;;;;;;;;;;;;;5038949;28;19912;-76
2023/05/21 02:56:04;;;;;;;;;;;;;;;;;;5034155;28;19916;-76
2023/05/21 02:58:29;;;;;;;;;;;;;;;;;;5034784;28;19913;-77
2023/05/21 03:00:55;;;;;;;;;;;;;;;;;;5034246;28;19917;-77
2023/05/21 03:03:20;;;;;;;;;;;;;;;;;;5034283;28;19940;-77
2023/05/21 03:05:47;;;;;;;;;;;;;;;;;;5034730;28;19912;-77
2023/05/21 03:08:12;;;;;;;;;;;;;;;;;;5035169;28;19920;-76
2023/05/21 03:10:38;;;;;;;;;;;;;;;;;;5035484;28;20375;-77
2023/05/21 03:13:05;;;;;;;;;;;;;;;;;;5037230;28;19920;-77
2023/05/21 03:15:32;;;;;;;;;;;;;;;;;;5037173;28;20287;-77
2023/05/21 03:17:57;;;;;;;;;;;;;;;;;;5046336;28;19913;-76
2023/05/21 03:20:22;;;;;;;;;;;;;;;;;;5041528;28;20276;-76
2023/05/21 03:22:48;;;;;;;;;;;;;;;;;;5039037;28;20062;-77
2023/05/21 03:25:13;;;;;;;;;;;;;;;;;;5044070;28;19986;-77
2023/05/21 03:27:39;;;;;;;;;;;;;;;;;;5046393;28;19919;-77
2023/05/21 03:30:10;;;;;;;;;;;;;;;;;;5040310;28;20380;-77
2023/05/21 03:32:50;;;;;;;;;;;;;;;;;;5037816;28;20313;-77
2023/05/21 03:35:15;;;;;;;;;;;;;;;;;;5035424;28;19925;-77
2023/05/21 03:37:40;;;;;;;;;;;;;;;;;;5039533;28;19917;-77
2023/05/21 03:40:06;;;;;;;;;;;;;;;;;;5039955;28;20410;-76
2023/05/21 03:42:31;;;;;;;;;;;;;;;;;;5038013;28;19913;-76
2023/05/21 03:44:57;;;;;;;;;;;;;;;;;;5040490;28;20008;-75
2023/05/21 03:47:31;;;;;;;;;;;;;;;;;;5038849;28;20015;-76
2023/05/21 03:49:57;;;;;;;;;;;;;;;;;;5040156;28;19956;-77
2023/05/21 03:52:23;;;;;;;;;;;;;;;;;;5032627;28;19959;-77
2023/05/21 03:54:48;;;;;;;;;;;;;;;;;;5035322;28;19959;-77
2023/05/21 03:57:13;;;;;;;;;;;;;;;;;;5038362;28;19919;-77
2023/05/21 03:59:39;;;;;;;;;;;;;;;;;;5037352;28;19913;-76
2023/05/21 04:02:04;;;;;;;;;;;;;;;;;;5049394;28;19912;-76
2023/05/21 04:04:29;;;;;;;;;;;;;;;;;;5045539;28;19912;-76
2023/05/21 04:06:55;;;;;;;;;;;;;;;;;;5034580;28;19909;-75
2023/05/21 04:09:21;;;;;;;;;;;;;;;;;;5034453;28;19960;-75
2023/05/21 04:11:46;;;;;;;;;;;;;;;;;;5036254;28;20327;-75
2023/05/21 04:14:12;;;;;;;;;;;;;;;;;;5037362;28;19924;-75
2023/05/21 04:16:37;;;;;;;;;;;;;;;;;;5042168;28;20487;-75
2023/05/21 04:19:03;;;;;;;;;;;;;;;;;;5038568;28;19917;-78
2023/05/21 04:21:28;;;;;;;;;;;;;;;;;;5036620;28;20033;-77
2023/05/21 04:23:56;;;;;;;;;;;;;;;;;;5038647;28;19919;-77
2023/05/21 04:26:42;;;;;;;;;;;;;;;;;;5035474;28;19913;-77
2023/05/21 04:29:08;;;;;;;;;;;;;;;;;;5059339;28;19968;-77
2023/05/21 04:31:34;;;;;;;;;;;;;;;;;;5038371;28;19909;-77
2023/05/21 04:34:01;;;;;;;;;;;;;;;;;;5035804;28;19945;-77
2023/05/21 04:36:27;;;;;;;;;;;;;;;;;;5039680;28;20023;-77
2023/05/21 04:38:53;;;;;;;;;;;;;;;;;;5041172;28;19917;-77
2023/05/21 04:41:20;;;;;;;;;;;;;;;;;;5043694;28;19917;-77
2023/05/21 04:43:45;;;;;;;;;;;;;;;;;;5042475;28;19919;-77
2023/05/21 04:46:11;;;;;;;;;;;;;;;;;;5046949;28;19917;-77
2023/05/21 04:48:37;;;;;;;;;;;;;;;;;;5041365;28;19912;-77
2023/05/21 04:51:04;;;;;;;;;;;;;;;;;;5043815;28;19947;-77
2023/05/21 04:53:30;;;;;;;;;;;;;;;;;;5039965;28;20303;-77
2023/05/21 04:55:58;;;;;;;;;;;;;;;;;;5038875;28;19916;-78
2023/05/21 04:58:23;;;;;;;;;;;;;;;;;;5040767;28;20299;-77
2023/05/21 05:00:50;;;;;;;;;;;;;;;;;;5057415;28;19909;-77
2023/05/21 05:03:15;;;;;;;;;;;;;;;;;;5056807;28;19913;-77
2023/05/21 05:05:42;;;;;;;;;;;;;;;;;;5091965;28;19913;-77
2023/05/21 05:08:07;;;;;;;;;;;;;;;;;;5051519;28;19919;-77
2023/05/21 05:10:33;;;;;;;;;;;;;;;;;;5043352;28;20314;-77
2023/05/21 05:12:58;;;;;;;;;;;;;;;;;;5049158;28;19912;-78
2023/05/21 05:15:23;;;;;;;;;;;;;;;;;;5040896;28;19913;-78
2023/05/21 05:17:49;;;;;;;;;;;;;;;;;;5039036;28;19920;-77
2023/05/21 05:20:15;;;;;;;;;;;;;;;;;;5041356;28;19913;-77
2023/05/21 05:22:40;;;;;;;;;;;;;;;;;;5045970;28;19927;-78
2023/05/21 05:25:05;;;;;;;;;;;;;;;;;;5047745;28;19940;-78
2023/05/21 05:27:31;;;;;;;;;;;;;;;;;;5053224;28;19916;-78
2023/05/21 05:29:56;;;;;;;;;;;;;;;;;;5042291;28;19909;-78
2023/05/21 05:32:21;;;;;;;;;;;;;;;;;;5036651;28;19913;-77
2023/05/21 05:34:47;;;;;;;;;;;;;;;;;;5050133;28;19959;-78
2023/05/21 05:37:12;;;;;;;;;;;;;;;;;;5045437;28;19929;-77
2023/05/21 05:39:37;;;;;;;;;;;;;;;;;;5050174;28;20364;-78
2023/05/21 05:42:03;;;;;;;;;;;;;;;;;;5043235;28;19916;-78
2023/05/21 05:44:28;;;;;;;;;;;;;;;;;;5025218;28;19916;-77
2023/05/21 05:46:54;;;;;;;;;;;;;;;;;;5039487;28;19999;-78
2023/05/21 05:49:19;;;;;;;;;;;;;;;;;;5037566;28;19916;-77
2023/05/21 05:51:44;;;;;;;;;;;;;;;;;;5065645;28;19969;-78
2023/05/21 05:54:10;;;;;;;;;;;;;;;;;;5031578;28;19909;-77
2023/05/21 05:56:35;;;;;;;;;;;;;;;;;;5041236;28;19932;-77
2023/05/21 05:59:02;;;;;;;;;;;;;;;;;;5039317;28;19996;-78
2023/05/21 06:01:28;;;;;;;;;;;;;;;;;;5038774;28;19967;-78
2023/05/21 06:03:54;;;;;;;;;;;;;;;;;;5036877;28;20299;-77
2023/05/21 06:06:19;;;;;;;;;;;;;;;;;;5036395;28;19913;-78
2023/05/21 06:08:45;;;;;;;;;;;;;;;;;;5034673;28;20288;-77
2023/05/21 06:11:11;;;;;;;;;;;;;;;;;;5038534;28;19917;-76
2023/05/21 06:13:36;;;;;;;;;;;;;;;;;;5041305;28;19909;-76
2023/05/21 06:16:02;;;;;;;;;;;;;;;;;;5036300;28;19917;-76
2023/05/21 06:18:27;;;;;;;;;;;;;;;;;;5036232;28;19909;-76
2023/05/21 06:20:53;;;;;;;;;;;;;;;;;;5045264;28;21136;-76
2023/05/21 06:23:20;;;;;;;;;;;;;;;;;;5040694;28;19980;-77
2023/05/21 06:25:45;;;;;;;;;;;;;;;;;;5048727;28;19920;-76
2023/05/21 06:28:10;;;;;;;;;;;;;;;;;;5047703;28;19913;-76
2023/05/21 06:30:37;;;;;;;;;;;;;;;;;;5045199;28;19920;-77
2023/05/21 06:33:02;;;;;;;;;;;;;;;;;;5049673;28;19951;-77
2023/05/21 06:35:27;;;;;;;;;;;;;;;;;;5055047;28;19963;-76
2023/05/21 06:37:53;;;;;;;;;;;;;;;;;;5049086;28;20398;-76
2023/05/21 06:40:19;;;;;;;;;;;;;;;;;;5040166;28;20000;-76
2023/05/21 06:42:44;;;;;;;;;;;;;;;;;;5042804;28;19913;-76
2023/05/21 06:45:22;;;;;;;;;;;;;;;;;;5061122;28;19913;-78
2023/05/21 06:47:50;;;;;;;;;;;;;;;;;;5039626;28;19917;-78
2023/05/21 06:50:16;;;;;;;;;;;;;;;;;;5038035;28;19890;-79
2023/05/21 06:52:41;;;;;;;;;;;;;;;;;;5036736;28;20280;-79
2023/05/21 06:55:06;;;;;;;;;;;;;;;;;;5028575;28;19910;-79
2023/05/21 06:57:52;;;;;;;;;;;;;;;;;;5033262;28;19917;-78
2023/05/21 07:00:17;;;;;;;;;;;;;;;;;;5035422;28;19920;-78
2023/05/21 07:02:43;;;;;;;;;;;;;;;;;;5039360;28;19924;-77
2023/05/21 07:05:08;;;;;;;;;;;;;;;;;;5070032;28;20022;-78
2023/05/21 07:07:34;;;;;;;;;;;;;;;;;;5072381;28;20441;-77
2023/05/21 07:09:59;;;;;;;;;;;;;;;;;;5036572;28;19913;-78
2023/05/21 07:12:24;;;;;;;;;;;;;;;;;;5035061;28;19909;-79
2023/05/21 07:14:50;;;;;;;;;;;;;;;;;;5015791;28;19952;-78
2023/05/21 07:17:15;;;;;;;;;;;;;;;;;;5045542;28;19915;-80
2023/05/21 07:19:40;;;;;;;;;;;;;;;;;;5032526;28;19916;-80
2023/05/21 07:22:06;;;;;;;;;;;;;;;;;;5033127;28;19920;-75
2023/05/21 07:24:31;;;;;;;;;;;;;;;;;;5031188;28;19935;-74
2023/05/21 07:26:56;;;;;;;;;;;;;;;;;;5032650;28;19955;-74
2023/05/21 07:29:22;;;;;;;;;;;;;;;;;;5034535;28;20291;-74
2023/05/21 07:31:47;;;;;;;;;;;;;;;;;;5030703;28;19909;-74
2023/05/21 07:34:12;;;;;;;;;;;;;;;;;;5032145;28;20352;-74
2023/05/21 07:36:39;;;;;;;;;;;;;;;;;;5024615;28;19925;-75
2023/05/21 07:39:05;;;;;;;;;;;;;;;;;;5062049;28;19935;-75
2023/05/21 07:41:31;;;;;;;;;;;;;;;;;;5028821;28;19924;-74
2023/05/21 07:44:00;;;;;;;;;;;;;;;;;;5030523;28;19913;-74
2023/05/21 07:46:25;;;;;;;;;;;;;;;;;;5042499;28;19908;-74
2023/05/21 07:48:53;;;;;;;;;;;;;;;;;;5029488;28;20040;-76
2023/05/21 07:51:19;;;;;;;;;;;;;;;;;;5027555;28;19944;-76
2023/05/21 07:53:44;;;;;;;;;;;;;;;;;;5027559;28;19913;-74
2023/05/21 07:56:11;;;;;;;;;;;;;;;;;;5030296;28;19936;-76
2023/05/21 07:58:38;;;;;;;;;;;;;;;;;;5032277;28;20340;-75
2023/05/21 08:01:03;;;;;;;;;;;;;;;;;;5033170;28;19958;-75
2023/05/21 08:03:29;;;;;;;;;;;;;;;;;;5031494;28;20288;-75
2023/05/21 08:05:55;;;;;;;;;;;;;;;;;;5016392;28;19920;-75
2023/05/21 08:08:22;;;;;;;;;;;;;;;;;;5032027;28;19913;-76
2023/05/21 08:10:49;;;;;;;;;;;;;;;;;;5033314;28;19978;-75
2023/05/21 08:13:14;;;;;;;;;;;;;;;;;;5029542;28;19913;-76
2023/05/21 08:15:39;;;;;;;;;;;;;;;;;;5029704;28;19916;-76
2023/05/21 08:18:06;;;;;;;;;;;;;;;;;;5029969;28;19936;-76
2023/05/21 08:20:35;;;;;;;;;;;;;;;;;;5029719;28;19909;-77
2023/05/21 08:23:00;;;;;;;;;;;;;;;;;;5030307;28;19963;-76
2023/05/21 08:25:27;;;;;;;;;;;;;;;;;;5029409;28;19928;-75
2023/05/21 08:27:54;;;;;;;;;;;;;;;;;;5030072;28;19913;-76
2023/05/21 08:30:19;;;;;;;;;;;;;;;;;;5029845;28;19947;-76
2023/05/21 08:32:45;;;;;;;;;;;;;;;;;;5030017;28;20059;-76
2023/05/21 08:35:10;;;;;;;;;;;;;;;;;;5029682;28;20387;-76
2023/05/21 08:37:51;;;;;;;;;;;;;;;;;;5029301;28;20429;-75
2023/05/21 08:40:29;;;;;;;;;;;;;;;;;;5029456;28;19920;-75
2023/05/21 08:42:55;;;;;;;;;;;;;;;;;;5056831;28;19917;-75
2023/05/21 08:45:36;;;;;;;;;;;;;;;;;;5030232;28;20268;-76
2023/05/21 08:48:02;;;;;;;;;;;;;;;;;;5030264;28;19920;-76
2023/05/21 08:50:30;;;;;;;;;;;;;;;;;;5029300;28;19909;-75
2023/05/21 08:53:00;;;;;;;;;;;;;;;;;;5030407;28;20391;-76
2023/05/21 08:55:25;;;;;;;;;;;;;;;;;;5029982;28;19912;-76
2023/05/21 08:57:51;;;;;;;;;;;;;;;;;;5030331;28;20458;-76
2023/05/21 09:00:16;;;;;;;;;;;;;;;;;;5029298;28;19909;-76
2023/05/21 09:02:43;;;;;;;;;;;;;;;;;;5030666;28;20399;-76
2023/05/21 09:05:08;;;;;;;;;;;;;;;;;;5016361;28;19909;-75
2023/05/21 09:07:34;;;;;;;;;;;;;;;;;;5031192;28;19913;-76
2023/05/21 09:10:16;;;;;;;;;;;;;;;;;;5026578;28;19909;-75
2023/05/21 09:12:41;;;;;;;;;;;;;;;;;;5030470;28;19920;-76
2023/05/21 09:15:07;;;;;;;;;;;;;;;;;;5029895;28;19909;-76
2023/05/21 09:17:34;;;;;;;;;;;;;;;;;;5014045;28;20008;-76
2023/05/21 09:20:12;;;;;;;;;;;;;;;;;;5030021;28;20008;-76
2023/05/21 09:22:41;;;;;;;;;;;;;;;;;;5033443;28;19917;-76
2023/05/21 09:25:09;;;;;;;;;;;;;;;;;;5035018;28;20356;-75
2023/05/21 09:27:36;;;;;;;;;;;;;;;;;;5033456;28;19912;-76
2023/05/21 09:30:01;;;;;;;;;;;;;;;;;;5039135;28;19909;-76
2023/05/21 09:32:27;;;;;;;;;;;;;;;;;;5019579;28;19952;-75
2023/05/21 09:34:52;;;;;;;;;;;;;;;;;;5022469;28;19966;-76
2023/05/21 09:37:17;;;;;;;;;;;;;;;;;;5036067;28;19936;-76
2023/05/21 09:39:43;;;;;;;;;;;;;;;;;;5035908;28;19912;-76
2023/05/21 09:42:08;;;;;;;;;;;;;;;;;;5038454;28;19917;-76
2023/05/21 09:44:33;;;;;;;;;;;;;;;;;;5040147;28;19954;-76
2023/05/21 09:46:59;;;;;;;;;;;;;;;;;;5035504;28;20379;-81
2023/05/21 09:49:25;;;;;;;;;;;;;;;;;;5041534;28;19913;-81
2023/05/21 09:51:51;;;;;;;;;;;;;;;;;;5035423;28;19940;-81
2023/05/21 09:54:16;;;;;;;;;;;;;;;;;;5035303;28;19909;-82
2023/05/21 09:56:41;;;;;;;;;;;;;;;;;;5034802;28;19913;-81
2023/05/21 09:59:07;;;;;;;;;;;;;;;;;;5037742;28;19916;-81
2023/05/21 10:01:33;;;;;;;;;;;;;;;;;;5034746;28;19923;-81
2023/05/21 10:03:58;;;;;;;;;;;;;;;;;;5066199;28;19999;-81
2023/05/21 10:06:24;;;;;;;;;;;;;;;;;;5035025;28;19959;-81
2023/05/21 10:08:49;;;;;;;;;;;;;;;;;;5035456;28;19928;-80
2023/05/21 10:11:14;;;;;;;;;;;;;;;;;;5034764;28;19913;-81
2023/05/21 10:13:40;;;;;;;;;;;;;;;;;;5042045;28;19920;-81
2023/05/21 10:16:05;;;;;;;;;;;;;;;;;;5039588;28;20314;-81
2023/05/21 10:18:30;;;;;;;;;;;;;;;;;;5040960;28;20001;-80
2023/05/21 10:20:56;;;;;;;;;;;;;;;;;;5042654;28;19936;-80
2023/05/21 10:23:21;;;;;;;;;;;;;;;;;;5039066;28;19924;-80
2023/05/21 10:25:46;;;;;;;;;;;;;;;;;;5040739;28;20011;-80
2023/05/21 10:28:12;;;;;;;;;;;;;;;;;;5048775;28;19909;-80
2023/05/21 10:30:37;;;;;;;;;;;;;;;;;;5055150;28;20010;-81
2023/05/21 10:33:03;;;;;;;;;;;;;;;;;;5037799;28;19993;-81
2023/05/21 10:35:28;;;;;;;;;;;;;;;;;;5049841;28;20364;-79
2023/05/21 10:37:53;;;;;;;;;;;;;;;;;;5045789;28;19955;-80
2023/05/21 10:40:19;;;;;;;;;;;;;;;;;;5053221;28;20002;-80
2023/05/21 10:42:44;;;;;;;;;;;;;;;;;;5038967;28;20335;-81
2023/05/21 10:45:09;;;;;;;;;;;;;;;;;;5019863;28;19912;-80
2023/05/21 10:47:35;;;;;;;;;;;;;;;;;;5030269;28;19909;-78
2023/05/21 10:50:00;;;;;;;;;;;;;;;;;;5066857;28;19921;-80
2023/05/21 10:52:25;;;;;;;;;;;;;;;;;;5044578;28;20000;-81
2023/05/21 10:54:51;;;;;;;;;;;;;;;;;;5048794;28;20470;-82
2023/05/21 10:57:17;;;;;;;;;;;;;;;;;;5051317;28;19952;-80
2023/05/21 10:59:42;;;;;;;;;;;;;;;;;;5060527;28;20007;-81
2023/05/21 11:02:07;;;;;;;;;;;;;;;;;;5039481;28;19912;-78
2023/05/21 11:04:38;;;;;;;;;;;;;;;;;;5044640;28;19913;-81
2023/05/21 11:07:03;;;;;;;;;;;;;;;;;;5047993;28;19913;-81
2023/05/21 11:09:29;;;;;;;;;;;;;;;;;;5076160;28;19915;-80
2023/05/21 11:11:56;;;;;;;;;;;;;;;;;;5038179;28;20383;-81
2023/05/21 11:14:22;;;;;;;;;;;;;;;;;;5040512;28;20442;-79
2023/05/21 11:16:47;;;;;;;;;;;;;;;;;;5033549;28;19913;-81
2023/05/21 11:19:12;;;;;;;;;;;;;;;;;;5046460;28;19908;-82
2023/05/21 11:21:38;;;;;;;;;;;;;;;;;;5040289;28;19917;-81
2023/05/21 11:24:03;;;;;;;;;;;;;;;;;;5067868;28;19944;-82
2023/05/21 11:26:28;;;;;;;;;;;;;;;;;;5036803;28;20279;-82
2023/05/21 11:28:53;;;;;;;;;;;;;;;;;;5037428;28;19909;-83
2023/05/21 11:31:19;;;;;;;;;;;;;;;;;;5037718;28;19958;-83
2023/05/21 11:33:44;;;;;;;;;;;;;;;;;;5036529;28;20275;-82
2023/05/21 11:36:10;;;;;;;;;;;;;;;;;;5044212;28;19925;-82
2023/05/21 11:38:35;;;;;;;;;;;;;;;;;;5046156;28;19916;-82
2023/05/21 11:41:00;;;;;;;;;;;;;;;;;;5072924;28;20408;-82
2023/05/21 11:43:26;;;;;;;;;;;;;;;;;;5033713;28;20019;-82
2023/05/21 11:45:51;;;;;;;;;;;;;;;;;;5035812;28;20372;-83
2023/05/21 11:48:16;;;;;;;;;;;;;;;;;;5053276;28;19908;-81
2023/05/21 11:50:42;;;;;;;;;;;;;;;;;;5050612;28;19913;-82
2023/05/21 11:53:07;;;;;;;;;;;;;;;;;;5035228;28;20368;-81
2023/05/21 11:55:33;;;;;;;;;;;;;;;;;;5043250;28;19919;-82
2023/05/21 11:57:58;;;;;;;;;;;;;;;;;;5039594;28;19909;-81
2023/05/21 12:00:24;;;;;;;;;;;;;;;;;;5045567;28;20031;-82
2023/05/21 12:02:49;;;;;;;;;;;;;;;;;;5035831;28;19951;-84
2023/05/21 12:05:15;;;;;;;;;;;;;;;;;;5034311;28;19913;-83
2023/05/21 12:07:40;;;;;;;;;;;;;;;;;;5036702;28;19913;-83
2023/05/21 12:10:05;;;;;;;;;;;;;;;;;;5040154;28;19913;-82
2023/05/21 12:12:31;;;;;;;;;;;;;;;;;;5035617;28;19909;-82
2023/05/21 12:14:57;;;;;;;;;;;;;;;;;;5034493;28;19913;-82
2023/05/21 12:17:22;;;;;;;;;;;;;;;;;;5037997;28;20344;-83
2023/05/21 12:19:47;;;;;;;;;;;;;;;;;;5036207;28;19920;-83
2023/05/21 12:22:14;;;;;;;;;;;;;;;;;;5035804;28;19935;-83
2023/05/21 12:24:39;;;;;;;;;;;;;;;;;;5036342;28;19913;-83
2023/05/21 12:27:08;;;;;;;;;;;;;;;;;;5037287;28;20265;-83
2023/05/21 12:29:34;;;;;;;;;;;;;;;;;;5039549;28;19919;-82
2023/05/21 12:32:00;;;;;;;;;;;;;;;;;;5044088;28;19941;-82
2023/05/21 12:34:25;;;;;;;;;;;;;;;;;;5040147;28;19913;-82
2023/05/21 12:36:50;;;;;;;;;;;;;;;;;;5015894;28;19936;-82
2023/05/21 12:39:16;;;;;;;;;;;;;;;;;;5033039;28;19905;-83
2023/05/21 12:41:41;;;;;;;;;;;;;;;;;;5033928;28;19971;-81
2023/05/21 12:44:07;;;;;;;;;;;;;;;;;;5035540;28;20327;-82
2023/05/21 12:46:32;;;;;;;;;;;;;;;;;;5048287;28;19936;-81
2023/05/21 12:48:58;;;;;;;;;;;;;;;;;;5036941;28;19959;-81
2023/05/21 12:51:23;;;;;;;;;;;;;;;;;;5037371;28;20375;-81
2023/05/21 12:53:49;;;;;;;;;;;;;;;;;;5038883;28;19912;-81
2023/05/21 12:56:14;;;;;;;;;;;;;;;;;;5068361;28;19909;-81
2023/05/21 12:58:40;;;;;;;;;;;;;;;;;;5037272;28;20437;-82
2023/05/21 13:01:05;;;;;;;;;;;;;;;;;;5040089;28;19909;-82
2023/05/21 13:03:30;;;;;;;;;;;;;;;;;;5037836;28;20376;-83
2023/05/21 13:05:56;;;;;;;;;;;;;;;;;;5043664;28;19916;-83
2023/05/21 13:08:21;;;;;;;;;;;;;;;;;;5057764;28;19913;-84
2023/05/21 13:10:47;;;;;;;;;;;;;;;;;;5056635;28;19909;-83
2023/05/21 13:13:12;;;;;;;;;;;;;;;;;;5044203;28;20275;-83
2023/05/21 13:15:38;;;;;;;;;;;;;;;;;;5038976;28;19909;-83
2023/05/21 13:18:03;;;;;;;;;;;;;;;;;;5039942;28;19975;-83
2023/05/21 13:20:28;;;;;;;;;;;;;;;;;;5050199;28;19940;-82
2023/05/21 13:22:54;;;;;;;;;;;;;;;;;;5038630;28;19924;-82
2023/05/21 13:25:20;;;;;;;;;;;;;;;;;;5071899;28;19916;-82
2023/05/21 13:27:45;;;;;;;;;;;;;;;;;;5038457;28;19913;-83
2023/05/21 13:30:10;;;;;;;;;;;;;;;;;;5040369;28;19920;-83
2023/05/21 13:32:36;;;;;;;;;;;;;;;;;;5039166;28;19920;-82
2023/05/21 13:35:01;;;;;;;;;;;;;;;;;;5039151;28;19921;-82
2023/05/21 13:37:26;;;;;;;;;;;;;;;;;;5038164;28;19964;-83
2023/05/21 13:39:52;;;;;;;;;;;;;;;;;;5042019;28;20007;-82
2023/05/21 13:42:18;;;;;;;;;;;;;;;;;;5038233;28;19917;-82
2023/05/21 13:44:43;;;;;;;;;;;;;;;;;;5041385;28;19909;-83
2023/05/21 13:47:09;;;;;;;;;;;;;;;;;;5040568;28;19919;-82
2023/05/21 13:49:34;;;;;;;;;;;;;;;;;;5041413;28;19909;-84
2023/05/21 13:52:00;;;;;;;;;;;;;;;;;;5042694;28;19940;-85
2023/05/21 13:54:25;;;;;;;;;;;;;;;;;;5047670;28;19913;-84
2023/05/21 13:56:50;;;;;;;;;;;;;;;;;;5044682;28;19917;-84
2023/05/21 13:59:16;;;;;;;;;;;;;;;;;;5036048;28;19916;-84
2023/05/21 14:01:44;;;;;;;;;;;;;;;;;;5065799;28;20348;-85
2023/05/21 14:04:09;;;;;;;;;;;;;;;;;;5027699;28;19948;-83
2023/05/21 14:06:35;;;;;;;;;;;;;;;;;;5067605;28;19920;-83
2023/05/21 14:09:00;;;;;;;;;;;;;;;;;;5034926;28;19920;-85
2023/05/21 14:11:25;;;;;;;;;;;;;;;;;;5071664;28;19913;-84
2023/05/21 14:13:52;;;;;;;;;;;;;;;;;;5045856;28;20016;-84
2023/05/21 14:16:17;;;;;;;;;;;;;;;;;;5042431;28;19913;-85
2023/05/21 14:18:42;;;;;;;;;;;;;;;;;;5043897;28;19958;-83
2023/05/21 14:21:08;;;;;;;;;;;;;;;;;;5038203;28;19913;-84
2023/05/21 14:23:33;;;;;;;;;;;;;;;;;;5048003;28;20344;-85
2023/05/21 14:25:58;;;;;;;;;;;;;;;;;;5043052;28;20294;-84
2023/05/21 14:28:23;;;;;;;;;;;;;;;;;;5044072;28;19913;-83
2023/05/21 14:30:49;;;;;;;;;;;;;;;;;;5034315;28;19919;-84
2023/05/21 14:33:15;;;;;;;;;;;;;;;;;;5035342;28;20310;-83
2023/05/21 14:35:42;;;;;;;;;;;;;;;;;;5035478;28;19929;-83
2023/05/21 14:38:07;;;;;;;;;;;;;;;;;;5036898;28;19991;-82
2023/05/21 14:40:33;;;;;;;;;;;;;;;;;;5041095;28;19959;-85
2023/05/21 14:42:58;;;;;;;;;;;;;;;;;;5037284;28;19913;-85
2023/05/21 14:45:23;;;;;;;;;;;;;;;;;;5036600;28;19913;-83
2023/05/21 14:47:49;;;;;;;;;;;;;;;;;;5042295;28;19909;-83
2023/05/21 14:50:14;;;;;;;;;;;;;;;;;;5070246;28;19912;-84
2023/05/21 14:52:41;;;;;;;;;;;;;;;;;;5039947;28;19913;-82
2023/05/21 14:55:06;;;;;;;;;;;;;;;;;;5042454;28;19998;-82
2023/05/21 14:57:32;;;;;;;;;;;;;;;;;;5034504;28;19940;-83
2023/05/21 14:59:57;;;;;;;;;;;;;;;;;;5045673;28;19913;-83
2023/05/21 15:02:23;;;;;;;;;;;;;;;;;;5039556;28;19927;-83
2023/05/21 15:04:48;;;;;;;;;;;;;;;;;;5042211;28;19913;-84
2023/05/21 15:07:13;;;;;;;;;;;;;;;;;;5034397;28;20490;-83
2023/05/21 15:09:39;;;;;;;;;;;;;;;;;;5035465;28;19912;-83
2023/05/21 15:12:04;;;;;;;;;;;;;;;;;;5037462;28;19913;-82
2023/05/21 15:14:30;;;;;;;;;;;;;;;;;;5036526;28;19913;-81
2023/05/21 15:16:55;;;;;;;;;;;;;;;;;;5035196;28;20364;-82
2023/05/21 15:19:20;;;;;;;;;;;;;;;;;;5037802;28;20399;-84
2023/05/21 15:21:45;;;;;;;;;;;;;;;;;;5035970;28;20422;-82
2023/05/21 15:24:11;;;;;;;;;;;;;;;;;;5038938;28;19913;-83
2023/05/21 15:26:36;;;;;;;;;;;;;;;;;;5034168;28;20058;-84
2023/05/21 15:29:02;;;;;;;;;;;;;;;;;;5033379;28;19932;-82
2023/05/21 15:31:28;;;;;;;;;;;;;;;;;;5036971;28;20342;-83
2023/05/21 15:33:53;;;;;;;;;;;;;;;;;;5045190;28;19913;-85
2023/05/21 15:36:18;;;;;;;;;;;;;;;;;;5033920;28;19924;-86
2023/05/21 15:38:44;;;;;;;;;;;;;;;;;;5032906;28;19917;-82
2023/05/21 15:41:09;;;;;;;;;;;;;;;;;;5035463;28;20315;-86
2023/05/21 15:43:35;;;;;;;;;;;;;;;;;;5036382;28;19913;-84
2023/05/21 15:46:00;;;;;;;;;;;;;;;;;;5036840;28;20155;-84
2023/05/21 15:48:25;;;;;;;;;;;;;;;;;;5036345;28;19913;-84
2023/05/21 15:50:51;;;;;;;;;;;;;;;;;;5034701;28;20004;-84
2023/05/21 15:53:16;;;;;;;;;;;;;;;;;;5034247;28;20318;-84
2023/05/21 15:55:41;;;;;;;;;;;;;;;;;;5033955;28;19908;-84
2023/05/21 15:58:07;;;;;;;;;;;;;;;;;;5066010;28;20295;-84
2023/05/21 16:00:32;;;;;;;;;;;;;;;;;;5036390;28;19916;-84
2023/05/21 16:02:57;;;;;;;;;;;;;;;;;;5037065;28;19971;-85
2023/05/21 16:05:22;;;;;;;;;;;;;;;;;;5036553;28;19909;-84
2023/05/21 16:07:48;;;;;;;;;;;;;;;;;;5034109;28;19913;-84
2023/05/21 16:10:13;;;;;;;;;;;;;;;;;;5036069;28;20352;-84
2023/05/21 16:12:39;;;;;;;;;;;;;;;;;;5042155;28;19913;-84
2023/05/21 16:15:04;;;;;;;;;;;;;;;;;;5040602;28;19916;-84
2023/05/21 16:17:30;;;;;;;;;;;;;;;;;;5041352;28;19990;-85
2023/05/21 16:19:55;;;;;;;;;;;;;;;;;;5042917;28;19919;-84
2023/05/21 16:22:22;;;;;;;;;;;;;;;;;;5040306;28;19928;-84
2023/05/21 16:24:47;;;;;;;;;;;;;;;;;;5047396;28;19909;-85
2023/05/21 16:27:12;;;;;;;;;;;;;;;;;;5034688;28;19936;-84
2023/05/21 16:29:37;;;;;;;;;;;;;;;;;;5034833;28;19948;-83
2023/05/21 16:32:03;;;;;;;;;;;;;;;;;;5043112;28;19919;-85
2023/05/21 16:34:28;;;;;;;;;;;;;;;;;;5044544;28;19931;-85
2023/05/21 16:36:54;;;;;;;;;;;;;;;;;;5039191;28;19925;-85